createdAt,value
2023-10-10T00:01:29.015Z,78.67
2023-10-10T00:03:55.958Z,79.07
2023-10-10T00:06:23.533Z,79.03
2023-10-10T00:08:51.925Z,78.83
2023-10-10T00:11:20.417Z,78.69
2023-10-10T00:13:48.123Z,78.82
2023-10-10T00:16:26.287Z,78.21
2023-10-10T00:18:57.071Z,78.46
2023-10-10T00:21:24.794Z,78.24
2023-10-10T00:23:52.376Z,78.25
2023-10-10T00:26:22.259Z,77.65
2023-10-10T00:28:58.741Z,77.65
2023-10-10T00:31:28.189Z,77.82
2023-10-10T00:33:56.343Z,77.71
2023-10-10T00:36:24.468Z,77.97
2023-10-10T00:38:59.073Z,78.08
2023-10-10T00:41:28.066Z,77.83
2023-10-10T00:43:55.133Z,77.69
2023-10-10T00:46:26.195Z,77.45
2023-10-10T00:49:01.387Z,77.42
2023-10-10T00:51:31.980Z,77.70
2023-10-10T00:54:24.781Z,77.46
2023-10-10T00:56:55.631Z,77.79
2023-10-10T00:59:35.928Z,77.98
2023-10-10T01:02:05.807Z,77.56
2023-10-10T01:04:37.026Z,77.31
2023-10-10T01:07:10.952Z,77.25
2023-10-10T01:09:56.763Z,77.54
2023-10-10T01:12:33.658Z,77.03
2023-10-10T01:15:05.019Z,77.27
2023-10-10T01:17:31.967Z,76.84
2023-10-10T01:20:19.494Z,76.90
2023-10-10T01:23:04.872Z,76.57
2023-10-10T01:25:34.414Z,76.54
2023-10-10T01:28:14.679Z,76.73
2023-10-10T01:30:45.888Z,76.77
2023-10-10T01:33:16.159Z,76.94
2023-10-10T01:35:43.225Z,77.29
2023-10-10T01:38:23.281Z,76.86
2023-10-10T01:40:50.012Z,77.13
2023-10-10T01:43:18.285Z,77.18
2023-10-10T01:45:49.629Z,77.00
2023-10-10T01:48:16.589Z,77.32
2023-10-10T01:50:44.504Z,76.97
2023-10-10T01:53:11.868Z,77.15
2023-10-10T01:55:38.960Z,76.86
2023-10-10T01:58:11.756Z,76.76
2023-10-10T02:00:38.725Z,76.82
2023-10-10T02:03:05.816Z,76.88
2023-10-10T02:05:38.551Z,76.93
2023-10-10T02:08:12.306Z,77.25
2023-10-10T02:10:45.325Z,76.83
2023-10-10T02:13:12.672Z,76.91
2023-10-10T02:15:40.999Z,76.72
2023-10-10T02:18:13.735Z,76.22
2023-10-10T02:20:46.827Z,76.43
2023-10-10T02:23:46.021Z,75.97
2023-10-10T02:26:27.090Z,75.92
2023-10-10T02:29:13.958Z,76.32
2023-10-10T02:31:43.314Z,75.91
2023-10-10T02:34:11.323Z,76.18
2023-10-10T02:36:42.125Z,76.03
2023-10-10T02:39:20.279Z,75.84
2023-10-10T02:41:52.103Z,75.94
2023-10-10T02:44:39.256Z,76.05
2023-10-10T02:47:06.478Z,76.06
2023-10-10T02:49:38.163Z,75.59
2023-10-10T02:52:08.084Z,75.87
2023-10-10T02:54:57.930Z,76.64
2023-10-10T02:57:27.486Z,76.62
2023-10-10T03:00:16.842Z,76.41
2023-10-10T03:02:51.222Z,76.78
2023-10-10T03:05:21.999Z,77.27
2023-10-10T03:07:54.823Z,77.81
2023-10-10T03:10:36.811Z,77.29
2023-10-10T03:13:26.601Z,77.68
2023-10-10T03:15:56.760Z,78.38
2023-10-10T03:18:31.593Z,78.72
2023-10-10T03:21:13.392Z,78.36
2023-10-10T03:23:55.391Z,79.06
2023-10-10T03:26:55.129Z,78.81
2023-10-10T03:29:22.856Z,78.97
2023-10-10T03:32:10.254Z,78.84
2023-10-10T03:34:46.350Z,79.17
2023-10-10T03:37:29.148Z,78.81
2023-10-10T03:39:58.951Z,79.10
2023-10-10T03:42:44.659Z,78.93
2023-10-10T03:45:38.053Z,78.68
2023-10-10T03:48:23.670Z,78.87
2023-10-10T03:51:09.343Z,78.79
2023-10-10T03:53:54.726Z,79.43
2023-10-10T03:56:40.044Z,79.24
2023-10-10T03:59:25.776Z,78.57
2023-10-10T04:02:14.324Z,78.90
2023-10-10T04:05:12.102Z,78.13
2023-10-10T04:08:06.280Z,77.78
2023-10-10T04:10:51.562Z,77.75
2023-10-10T04:13:36.944Z,77.33
2023-10-10T04:16:27.848Z,76.89
2023-10-10T04:19:32.006Z,76.98
2023-10-10T04:22:17.337Z,76.63
2023-10-10T04:25:03.198Z,76.23
2023-10-10T04:27:48.222Z,75.69
2023-10-10T04:30:33.786Z,75.70
2023-10-10T04:33:19.291Z,75.95
2023-10-10T04:36:25.371Z,76.01
2023-10-10T04:39:10.764Z,75.93
2023-10-10T04:42:14.806Z,75.24
2023-10-10T04:44:59.641Z,75.44
2023-10-10T04:47:45.230Z,75.39
2023-10-10T04:50:30.603Z,74.87
2023-10-10T04:53:16.077Z,75.21
2023-10-10T04:56:01.516Z,75.29
2023-10-10T04:58:46.727Z,75.16
2023-10-10T05:01:32.089Z,76.13
2023-10-10T05:04:17.527Z,75.83
2023-10-10T05:07:03.104Z,75.65
2023-10-10T05:09:48.545Z,75.98
2023-10-10T05:12:33.952Z,75.45
2023-10-10T05:15:19.465Z,75.95
2023-10-10T05:18:05.027Z,76.68
2023-10-10T05:20:50.236Z,77.46
2023-10-10T05:23:35.572Z,79.79
2023-10-10T05:26:21.683Z,83.60
2023-10-10T05:28:49.595Z,85.18
2023-10-10T05:31:22.683Z,88.11
2023-10-10T05:33:49.755Z,88.83
2023-10-10T05:36:19.636Z,90.84
2023-10-10T05:38:47.402Z,92.99
2023-10-10T05:41:14.140Z,92.69
2023-10-10T05:43:41.085Z,93.81
2023-10-10T05:46:08.237Z,95.47
2023-10-10T05:48:36.847Z,96.54
2023-10-10T05:51:10.073Z,96.68
2023-10-10T05:53:37.435Z,96.26
2023-10-10T05:56:20.277Z,96.69
2023-10-10T05:58:48.576Z,98.59
2023-10-10T06:01:16.068Z,99.57
2023-10-10T06:03:43.943Z,99.82
2023-10-10T06:15:13.500Z,100.00
2023-10-10T06:17:40.663Z,100.00
2023-10-10T06:20:07.971Z,100.00
2023-10-10T06:22:34.725Z,100.00
2023-10-10T06:25:01.543Z,100.00
2023-10-10T06:27:34.209Z,100.00
2023-10-10T06:30:01.395Z,100.00
2023-10-10T06:32:32.252Z,100.00
2023-10-10T06:35:25.493Z,100.00
2023-10-10T06:37:55.448Z,100.00
2023-10-10T06:40:32.042Z,100.00
2023-10-10T06:43:01.748Z,100.00
2023-10-10T06:45:36.077Z,100.00
2023-10-10T06:48:26.354Z,100.00
2023-10-10T06:50:53.193Z,100.00
2023-10-10T06:53:35.558Z,100.00
2023-10-10T06:56:16.008Z,100.00
2023-10-10T06:58:44.693Z,100.00
2023-10-10T07:01:12.967Z,100.00
2023-10-10T07:03:48.035Z,100.00
2023-10-10T07:06:15.065Z,100.00
2023-10-10T07:08:42.324Z,100.00
2023-10-10T07:11:11.970Z,100.00
2023-10-10T07:13:45.122Z,100.00
2023-10-10T07:16:12.606Z,100.00
2023-10-10T07:18:44.015Z,100.00
2023-10-10T07:21:31.874Z,100.00
2023-10-10T07:24:06.473Z,100.00
2023-10-10T07:26:42.350Z,100.00
2023-10-10T07:29:29.086Z,100.00
2023-10-10T07:32:06.100Z,100.00
2023-10-10T07:34:36.437Z,100.00
2023-10-10T07:37:09.519Z,100.00
2023-10-10T07:39:56.425Z,99.93
2023-10-10T07:42:31.965Z,99.69
2023-10-10T07:44:58.949Z,99.72
2023-10-10T07:47:27.549Z,99.07
2023-10-10T07:50:00.839Z,98.93
2023-10-10T07:52:27.633Z,99.06
2023-10-10T07:54:54.896Z,98.37
2023-10-10T07:57:27.871Z,98.14
2023-10-10T07:59:59.539Z,98.47
2023-10-10T08:02:33.128Z,97.77
2023-10-10T08:05:10.864Z,97.68
2023-10-10T08:07:38.415Z,97.11
2023-10-10T08:10:43.738Z,97.38
2023-10-10T08:13:13.566Z,97.91
2023-10-10T08:15:54.071Z,97.39
2023-10-10T08:18:39.721Z,97.59
2023-10-10T08:21:07.259Z,97.14
2023-10-10T08:23:37.165Z,96.77
2023-10-10T08:26:04.135Z,95.95
2023-10-10T08:28:30.821Z,95.59
2023-10-10T08:30:59.189Z,95.26
2023-10-10T08:33:27.875Z,95.08
2023-10-10T08:35:54.819Z,94.64
2023-10-10T08:38:21.924Z,95.66
2023-10-10T08:40:59.218Z,95.22
2023-10-10T08:43:29.986Z,95.16
2023-10-10T08:46:05.538Z,94.60
2023-10-10T08:48:35.294Z,93.58
2023-10-10T08:51:05.480Z,94.35
2023-10-10T08:53:37.655Z,93.97
2023-10-10T08:56:04.572Z,94.58
2023-10-10T08:58:34.784Z,93.32
2023-10-10T09:01:02.533Z,93.07
2023-10-10T09:03:36.128Z,92.62
2023-10-10T09:06:17.472Z,92.95
2023-10-10T09:08:45.189Z,93.16
2023-10-10T09:11:12.931Z,92.14
2023-10-10T09:13:55.373Z,90.31
2023-10-10T09:16:43.406Z,89.98
2023-10-10T09:19:10.221Z,89.42
2023-10-10T09:21:57.126Z,89.01
2023-10-10T09:24:32.933Z,88.73
2023-10-10T09:27:08.672Z,89.03
2023-10-10T09:29:43.437Z,89.02
2023-10-10T09:32:15.202Z,89.79
2023-10-10T09:34:42.993Z,89.79
2023-10-10T09:37:15.377Z,89.07
2023-10-10T09:39:44.691Z,87.98
2023-10-10T09:42:29.121Z,87.50
2023-10-10T09:45:02.968Z,86.65
2023-10-10T09:47:45.094Z,86.44
2023-10-10T09:50:24.232Z,87.40
2023-10-10T09:52:54.968Z,86.95
2023-10-10T09:55:26.327Z,86.80
2023-10-10T09:58:07.087Z,86.13
2023-10-10T10:00:40.142Z,86.26
2023-10-10T10:03:27.327Z,85.84
2023-10-10T10:06:01.427Z,85.78
2023-10-10T10:08:45.864Z,85.52
2023-10-10T10:11:27.397Z,85.26
2023-10-10T10:14:16.516Z,84.37
2023-10-10T10:16:48.265Z,82.98
2023-10-10T10:19:20.582Z,82.83
2023-10-10T10:22:07.006Z,83.23
2023-10-10T10:24:45.437Z,83.37
2023-10-10T10:27:44.472Z,82.89
2023-10-10T10:30:19.581Z,80.90
2023-10-10T10:32:50.452Z,80.59
2023-10-10T10:35:37.925Z,80.01
2023-10-10T10:38:08.147Z,77.78
2023-10-10T10:40:41.681Z,79.33
2023-10-10T10:43:15.303Z,79.39
2023-10-10T10:45:46.491Z,78.72
2023-10-10T10:48:32.579Z,78.63
2023-10-10T10:51:05.108Z,79.05
2023-10-10T10:53:39.968Z,78.27
2023-10-10T10:56:19.529Z,75.16
2023-10-10T10:58:55.837Z,72.57
2023-10-10T11:01:29.748Z,71.21
2023-10-10T11:03:59.600Z,71.64
2023-10-10T11:06:26.491Z,70.63
2023-10-10T11:11:27.075Z,70.28
2023-10-10T11:14:01.484Z,71.16
2023-10-10T11:16:38.445Z,68.67
2023-10-10T11:19:24.390Z,68.82
2023-10-10T11:21:54.782Z,69.05
2023-10-10T11:24:26.801Z,68.93
2023-10-10T11:27:15.455Z,69.77
2023-10-10T11:29:46.197Z,66.87
2023-10-10T11:32:14.690Z,55.00
2023-10-10T11:34:45.300Z,51.12
2023-10-10T11:37:15.201Z,54.94
2023-10-10T11:39:48.434Z,57.58
2023-10-10T11:42:31.317Z,57.93
2023-10-10T11:45:03.275Z,51.26
2023-10-10T11:47:31.465Z,50.87
2023-10-10T11:50:10.100Z,47.79
2023-10-10T11:52:53.942Z,47.46
2023-10-10T11:55:22.106Z,49.66
2023-10-10T11:57:50.425Z,48.61
2023-10-10T12:00:27.843Z,50.79
2023-10-10T12:02:56.854Z,49.34
2023-10-10T12:05:30.063Z,51.13
2023-10-10T12:07:59.698Z,45.04
2023-10-10T12:10:32.309Z,45.26
2023-10-10T12:12:59.036Z,49.95
2023-10-10T12:15:25.629Z,49.94
2023-10-10T12:17:58.434Z,48.62
2023-10-10T12:20:26.518Z,45.32
2023-10-10T12:22:53.214Z,52.49
2023-10-10T12:25:19.964Z,58.94
2023-10-10T12:27:49.274Z,54.68
2023-10-10T12:30:20.295Z,53.99
2023-10-10T12:32:50.477Z,45.38
2023-10-10T12:35:18.640Z,50.38
2023-10-10T12:37:45.500Z,48.08
2023-10-10T12:40:12.793Z,50.29
2023-10-10T12:42:40.159Z,50.02
2023-10-10T12:45:07.857Z,50.03
2023-10-10T12:47:34.786Z,48.02
2023-10-10T12:50:01.854Z,43.21
2023-10-10T12:52:36.373Z,44.16
2023-10-10T12:55:10.989Z,47.54
2023-10-10T12:57:38.572Z,53.97
2023-10-10T13:00:25.992Z,49.31
2023-10-10T13:02:54.847Z,44.58
2023-10-10T13:05:28.567Z,46.05
2023-10-10T13:07:59.713Z,50.35
2023-10-10T13:10:31.803Z,47.27
2023-10-10T13:13:27.685Z,47.02
2023-10-10T13:16:09.003Z,44.91
2023-10-10T13:18:36.783Z,48.41
2023-10-10T13:21:04.183Z,47.70
2023-10-10T13:23:31.723Z,48.41
2023-10-10T13:25:58.430Z,44.73
2023-10-10T13:28:25.373Z,46.74
2023-10-10T13:30:52.160Z,51.42
2023-10-10T13:33:21.450Z,46.90
2023-10-10T13:35:49.950Z,49.98
2023-10-10T13:38:17.032Z,53.95
2023-10-10T13:40:47.370Z,57.92
2023-10-10T13:43:23.518Z,51.66
2023-10-10T13:45:50.413Z,50.49
2023-10-10T13:48:20.227Z,54.04
2023-10-10T13:50:47.692Z,55.98
2023-10-10T13:53:15.558Z,60.21
2023-10-10T13:55:43.468Z,61.17
2023-10-10T13:58:13.242Z,60.28
2023-10-10T14:00:53.518Z,60.65
2023-10-10T14:03:30.218Z,64.17
2023-10-10T14:06:02.107Z,65.38
2023-10-10T14:08:31.799Z,62.98
2023-10-10T14:11:00.416Z,65.81
2023-10-10T14:13:30.600Z,63.44
2023-10-10T14:16:02.101Z,65.58
2023-10-10T14:18:33.504Z,63.89
2023-10-10T14:21:09.126Z,65.89
2023-10-10T14:23:42.015Z,65.74
2023-10-10T14:26:20.062Z,65.77
2023-10-10T14:28:52.868Z,68.57
2023-10-10T14:31:22.268Z,65.38
2023-10-10T14:33:50.082Z,65.39
2023-10-10T14:36:17.921Z,66.24
2023-10-10T14:38:49.334Z,67.12
2023-10-10T14:41:21.493Z,66.96
2023-10-10T14:43:51.227Z,66.06
2023-10-10T14:46:42.328Z,66.51
2023-10-10T14:49:18.542Z,65.16
2023-10-10T14:51:49.677Z,63.40
2023-10-10T14:54:20.471Z,65.35
2023-10-10T14:56:47.540Z,63.30
2023-10-10T14:59:19.261Z,63.66
2023-10-10T15:01:49.860Z,65.02
2023-10-10T15:04:21.229Z,63.66
2023-10-10T15:06:55.670Z,64.39
2023-10-10T15:09:25.740Z,65.57
2023-10-10T15:12:02.873Z,65.23
2023-10-10T15:14:33.252Z,66.23
2023-10-10T15:17:01.981Z,66.36
2023-10-10T15:19:29.222Z,68.29
2023-10-10T15:21:57.413Z,68.38
2023-10-10T15:24:24.945Z,69.54
2023-10-10T15:26:53.124Z,69.94
2023-10-10T15:29:22.526Z,71.31
2023-10-10T15:31:51.341Z,71.24
2023-10-10T15:34:18.580Z,72.74
2023-10-10T15:36:46.914Z,74.47
2023-10-10T15:39:13.978Z,76.15
2023-10-10T15:41:43.841Z,77.24
2023-10-10T15:44:13.867Z,79.32
2023-10-10T15:46:44.035Z,80.22
2023-10-10T15:49:24.767Z,80.37
2023-10-10T15:51:59.354Z,80.80
2023-10-10T15:54:30.432Z,81.19
2023-10-10T15:56:57.262Z,80.92
2023-10-10T15:59:25.812Z,82.24
2023-10-10T16:01:52.690Z,82.19
2023-10-10T16:04:21.942Z,82.67
2023-10-10T16:06:48.817Z,83.38
2023-10-10T16:09:21.579Z,83.07
2023-10-10T16:11:55.063Z,84.81
2023-10-10T16:14:22.824Z,84.76
2023-10-10T16:16:50.169Z,85.73
2023-10-10T16:19:33.593Z,86.51
2023-10-10T16:22:04.219Z,86.72
2023-10-10T16:24:30.968Z,88.09
2023-10-10T16:27:01.455Z,88.32
2023-10-10T16:29:35.643Z,89.60
2023-10-10T16:32:08.708Z,89.93
2023-10-10T16:34:43.664Z,90.50
2023-10-10T16:37:15.522Z,90.97
2023-10-10T16:39:47.485Z,91.79
2023-10-10T16:42:21.151Z,91.09
2023-10-10T16:44:48.399Z,91.46
2023-10-10T16:47:18.185Z,91.68
2023-10-10T16:49:46.116Z,92.61
2023-10-10T16:52:12.897Z,92.68
2023-10-10T16:54:41.813Z,93.03
2023-10-10T16:57:12.328Z,93.27
2023-10-10T16:59:39.471Z,94.60
2023-10-10T17:02:06.879Z,93.82
2023-10-10T17:04:34.710Z,94.41
2023-10-10T17:07:01.492Z,94.25
2023-10-10T17:09:29.696Z,95.17
2023-10-10T17:12:03.670Z,96.18
2023-10-10T17:14:30.719Z,96.42
2023-10-10T17:16:57.636Z,97.36
2023-10-10T17:19:24.961Z,98.21
2023-10-10T17:21:51.890Z,97.43
2023-10-10T17:24:21.970Z,95.88
2023-10-10T17:26:49.032Z,94.72
2023-10-10T17:29:16.555Z,93.90
2023-10-10T17:31:43.834Z,92.78
2023-10-10T17:34:16.296Z,91.88
2023-10-10T17:36:43.589Z,90.87
2023-10-10T17:39:10.519Z,89.86
2023-10-10T17:41:37.469Z,88.95
2023-10-10T17:44:10.364Z,88.64
2023-10-10T17:46:37.632Z,87.47
2023-10-10T17:49:06.188Z,86.88
2023-10-10T17:51:34.765Z,86.45
2023-10-10T17:54:01.887Z,86.09
2023-10-10T17:56:28.932Z,85.09
2023-10-10T17:58:55.790Z,84.74
2023-10-10T18:01:22.751Z,84.59
2023-10-10T18:03:54.693Z,83.89
2023-10-10T18:06:41.272Z,83.46
2023-10-10T18:09:10.877Z,83.54
2023-10-10T18:11:38.960Z,82.96
2023-10-10T18:14:06.543Z,82.81
2023-10-10T18:16:35.444Z,82.63
2023-10-10T18:19:02.760Z,81.78
2023-10-10T18:21:31.619Z,82.03
2023-10-10T18:23:58.436Z,81.60
2023-10-10T18:26:25.632Z,81.39
2023-10-10T18:28:54.101Z,81.22
2023-10-10T18:31:31.634Z,80.94
2023-10-10T18:33:59.366Z,80.33
2023-10-10T18:36:26.404Z,80.01
2023-10-10T18:38:53.743Z,80.00
2023-10-10T18:41:24.715Z,79.64
2023-10-10T18:43:52.196Z,79.72
2023-10-10T18:46:18.909Z,79.81
2023-10-10T18:48:46.716Z,79.76
2023-10-10T18:51:15.269Z,79.14
2023-10-10T18:53:42.757Z,79.24
2023-10-10T18:56:09.738Z,78.87
2023-10-10T18:58:40.249Z,78.84
2023-10-10T19:01:08.779Z,78.84
2023-10-10T19:03:35.759Z,78.81
2023-10-10T19:06:02.827Z,78.58
2023-10-10T19:08:29.730Z,78.64
2023-10-10T19:10:56.396Z,78.19
2023-10-10T19:13:23.098Z,78.17
2023-10-10T19:15:49.841Z,78.34
2023-10-10T19:18:17.502Z,78.24
2023-10-10T19:20:44.844Z,78.14
2023-10-10T19:23:11.674Z,77.70
2023-10-10T19:25:48.296Z,77.70
2023-10-10T19:28:16.799Z,77.71
2023-10-10T19:30:44.087Z,77.66
2023-10-10T19:33:12.362Z,77.68
2023-10-10T19:35:45.264Z,77.33
2023-10-10T19:38:13.084Z,77.40
2023-10-10T19:40:44.471Z,77.29
2023-10-10T19:43:14.217Z,77.27
2023-10-10T19:45:41.648Z,76.84
2023-10-10T19:48:08.562Z,76.94
2023-10-10T19:50:39.980Z,76.79
2023-10-10T19:53:07.103Z,77.05
2023-10-10T19:55:38.564Z,76.75
2023-10-10T19:58:10.677Z,76.69
2023-10-10T20:00:44.038Z,76.69
2023-10-10T20:03:14.734Z,76.92
2023-10-10T20:05:42.664Z,76.73
2023-10-10T20:08:14.392Z,76.94
2023-10-10T20:10:41.753Z,77.14
2023-10-10T20:13:08.764Z,76.76
2023-10-10T20:15:41.008Z,76.81
2023-10-10T20:18:09.669Z,77.02
2023-10-10T20:20:37.561Z,76.58
2023-10-10T20:23:04.496Z,77.01
2023-10-10T20:25:32.526Z,76.63
2023-10-10T20:28:05.403Z,76.82
2023-10-10T20:30:34.072Z,76.91
2023-10-10T20:33:04.852Z,76.45
2023-10-10T20:35:35.696Z,76.25
2023-10-10T20:38:07.259Z,76.61
2023-10-10T20:40:36.383Z,76.24
2023-10-10T20:43:10.250Z,76.00
2023-10-10T20:45:37.914Z,76.19
2023-10-10T20:48:10.465Z,75.80
2023-10-10T20:50:41.995Z,75.82
2023-10-10T20:53:09.194Z,75.74
2023-10-10T20:55:36.147Z,75.46
2023-10-10T20:58:03.032Z,75.99
2023-10-10T21:00:35.681Z,75.75
2023-10-10T21:03:07.418Z,75.98
2023-10-10T21:05:35.573Z,76.18
2023-10-10T21:08:03.678Z,76.03
2023-10-10T21:10:33.867Z,75.58
2023-10-10T21:13:02.978Z,75.91
2023-10-10T21:15:31.306Z,75.46
2023-10-10T21:18:00.374Z,75.82
2023-10-10T21:20:32.160Z,75.38
2023-10-10T21:23:02.800Z,75.47
2023-10-10T21:25:33.230Z,75.60
2023-10-10T21:28:18.930Z,75.64
2023-10-10T21:30:45.736Z,75.32
2023-10-10T21:33:12.483Z,75.74
2023-10-10T21:35:41.925Z,75.34
2023-10-10T21:38:08.998Z,75.66
2023-10-10T21:40:35.761Z,75.74
2023-10-10T21:43:03.438Z,75.75
2023-10-10T21:45:33.904Z,75.35
2023-10-10T21:48:04.812Z,75.05
2023-10-10T21:50:32.611Z,74.92
2023-10-10T21:52:59.655Z,75.22
2023-10-10T21:55:28.793Z,75.28
2023-10-10T21:57:58.878Z,75.21
2023-10-10T22:00:32.079Z,74.83
2023-10-10T22:03:05.287Z,74.86
2023-10-10T22:05:33.121Z,74.85
2023-10-10T22:07:59.997Z,74.91
2023-10-10T22:10:27.675Z,74.71
2023-10-10T22:12:55.627Z,75.04
2023-10-10T22:15:25.850Z,74.48
2023-10-10T22:17:58.461Z,74.78
2023-10-10T22:20:29.038Z,74.94
2023-10-10T22:22:56.011Z,74.83
2023-10-10T22:25:23.431Z,74.92
2023-10-10T22:27:52.501Z,75.24
2023-10-10T22:30:25.735Z,75.10
2023-10-10T22:32:54.461Z,74.94
2023-10-10T22:35:22.802Z,74.51
2023-10-10T22:37:51.227Z,74.88
2023-10-10T22:40:18.763Z,74.38
2023-10-10T22:42:45.775Z,74.30
2023-10-10T22:45:13.040Z,74.21
2023-10-10T22:47:39.962Z,74.57
2023-10-10T22:50:08.642Z,74.00
2023-10-10T22:52:39.011Z,74.36
2023-10-10T22:55:11.164Z,74.13
2023-10-10T22:57:38.264Z,74.34
2023-10-10T23:00:14.321Z,74.29
2023-10-10T23:02:43.260Z,74.02
2023-10-10T23:05:10.126Z,74.41
2023-10-10T23:07:39.604Z,73.93
2023-10-10T23:10:06.758Z,74.49
2023-10-10T23:12:37.470Z,74.51
2023-10-10T23:15:12.575Z,74.35
2023-10-10T23:17:44.261Z,74.52
2023-10-10T23:20:20.174Z,74.14
2023-10-10T23:22:50.264Z,74.42
2023-10-10T23:25:21.286Z,74.50
2023-10-10T23:27:48.875Z,74.13
2023-10-10T23:30:23.050Z,74.35
2023-10-10T23:32:50.887Z,73.95
2023-10-10T23:35:22.714Z,73.88
2023-10-10T23:37:53.587Z,74.21
2023-10-10T23:40:22.682Z,73.83
2023-10-10T23:42:52.201Z,73.65
2023-10-10T23:45:26.531Z,73.77
2023-10-10T23:47:56.290Z,74.24
2023-10-10T23:50:27.247Z,73.64
2023-10-10T23:52:55.799Z,73.72
2023-10-10T23:55:23.661Z,73.88
2023-10-10T23:57:55.650Z,73.74
